createdAt,value
2023-03-06T00:00:14.182Z,84
2023-03-06T00:10:19.347Z,86
2023-03-06T00:20:24.560Z,84
2023-03-06T00:30:29.664Z,88
2023-03-06T00:41:54.657Z,84
2023-03-06T00:51:58.791Z,84
2023-03-06T01:02:04.000Z,84
2023-03-06T01:12:09.476Z,88
2023-03-06T01:22:14.968Z,84
2023-03-06T01:32:20.533Z,84
2023-03-06T01:42:26.278Z,84
2023-03-06T01:52:31.706Z,82
2023-03-06T02:02:36.720Z,84
2023-03-06T02:12:42.015Z,84
2023-03-06T02:22:47.647Z,88
2023-03-06T02:32:53.034Z,84
2023-03-06T02:42:58.798Z,84
2023-03-06T02:53:03.637Z,82
2023-03-06T03:03:09.071Z,82
2023-03-06T03:13:14.102Z,84
2023-03-06T03:23:19.332Z,82
2023-03-06T03:33:24.416Z,82
2023-03-06T03:43:29.514Z,84
2023-03-06T03:53:34.912Z,82
2023-03-06T04:03:40.072Z,84
2023-03-06T04:13:45.117Z,84
2023-03-06T04:23:50.252Z,84
2023-03-06T04:33:56.810Z,84
2023-03-06T04:44:02.057Z,84
2023-03-06T04:54:07.376Z,86
2023-03-06T05:04:12.606Z,82
2023-03-06T05:14:17.762Z,84
2023-03-06T05:24:22.898Z,84
2023-03-06T05:34:28.255Z,84
2023-03-06T05:44:33.448Z,82
2023-03-06T05:54:38.747Z,86
2023-03-06T06:04:43.687Z,84
2023-03-06T06:14:48.671Z,82
2023-03-06T06:24:54.015Z,84
2023-03-06T06:34:59.272Z,82
2023-03-06T06:45:05.191Z,84
2023-03-06T06:55:10.177Z,84
2023-03-06T07:05:15.390Z,90
2023-03-06T07:15:20.521Z,90
2023-03-06T07:25:25.710Z,90
2023-03-06T07:35:30.835Z,92
2023-03-06T07:45:36.406Z,90
2023-03-06T07:55:41.724Z,88
2023-03-06T08:05:46.988Z,86
2023-03-06T08:15:52.087Z,86
2023-03-06T08:25:57.475Z,88
2023-03-06T08:36:02.908Z,92
2023-03-06T08:46:08.340Z,72
2023-03-06T08:56:13.817Z,78
2023-03-06T09:06:19.042Z,76
2023-03-06T09:16:24.483Z,76
2023-03-06T09:26:43.493Z,76
2023-03-06T09:36:55.650Z,76
2023-03-06T09:46:50.567Z,78
2023-03-06T09:56:56.172Z,76
2023-03-06T10:07:01.495Z,78
2023-03-06T10:17:06.675Z,78
2023-03-06T10:27:12.217Z,78
2023-03-06T10:37:17.379Z,78
2023-03-06T10:47:22.577Z,76
2023-03-06T10:57:27.924Z,78
2023-03-06T11:07:33.265Z,74
2023-03-06T11:17:38.386Z,76
2023-03-06T11:27:43.719Z,76
2023-03-06T11:37:48.909Z,78
2023-03-06T11:47:53.870Z,78
2023-03-06T11:57:59.744Z,78
2023-03-06T12:08:05.495Z,76
2023-03-06T12:18:10.566Z,78
2023-03-06T12:28:16.175Z,76
2023-03-06T12:38:21.735Z,78
2023-03-06T12:48:27.284Z,76
2023-03-06T12:58:32.406Z,74
2023-03-06T13:08:37.876Z,78
2023-03-06T13:18:43.069Z,78
2023-03-06T13:28:48.412Z,78
2023-03-06T13:38:53.692Z,76
2023-03-06T13:48:59.546Z,76
2023-03-06T13:59:04.804Z,76
2023-03-06T14:09:10.029Z,76
2023-03-06T14:19:15.460Z,78
2023-03-06T14:29:20.832Z,76
2023-03-06T14:39:26.941Z,78
2023-03-06T14:49:32.292Z,76
2023-03-06T14:59:37.769Z,72
2023-03-06T15:09:43.065Z,76
2023-03-06T15:19:48.513Z,80
2023-03-06T15:29:53.918Z,74
2023-03-06T15:39:59.219Z,72
2023-03-06T15:50:04.336Z,78
2023-03-06T16:00:21.695Z,76
2023-03-06T16:10:20.189Z,76
2023-03-06T16:20:25.703Z,78
2023-03-06T16:30:31.354Z,74
2023-03-06T16:40:36.748Z,74
2023-03-06T16:50:41.913Z,70
2023-03-06T17:02:06.826Z,72
2023-03-06T17:12:11.464Z,72
2023-03-06T17:22:17.129Z,76
2023-03-06T17:32:22.292Z,76
2023-03-06T17:42:27.404Z,78
2023-03-06T17:52:32.531Z,78
2023-03-06T18:02:37.797Z,80
2023-03-06T18:12:42.846Z,82
2023-03-06T18:22:48.500Z,78
2023-03-06T18:32:53.472Z,78
2023-03-06T18:42:58.891Z,78
2023-03-06T18:53:04.117Z,78
2023-03-06T19:03:09.382Z,74
2023-03-06T19:13:14.644Z,78
2023-03-06T19:23:20.279Z,74
2023-03-06T19:33:25.665Z,76
2023-03-06T19:43:30.956Z,80
2023-03-06T19:53:36.121Z,82
2023-03-06T20:03:41.774Z,86
2023-03-06T20:13:47.740Z,82
2023-03-06T20:23:53.480Z,80
2023-03-06T20:33:58.825Z,78
2023-03-06T20:44:04.334Z,78
2023-03-06T20:54:09.684Z,76
2023-03-06T21:04:16.196Z,76
2023-03-06T21:14:21.572Z,78
2023-03-06T21:24:26.708Z,74
2023-03-06T21:34:32.353Z,78
2023-03-06T21:44:37.638Z,88
2023-03-06T21:54:42.917Z,90
2023-03-06T22:04:48.160Z,90
2023-03-06T22:14:53.493Z,92
2023-03-06T22:24:59.077Z,90
2023-03-06T22:35:04.719Z,92
2023-03-06T22:45:14.138Z,88
2023-03-06T22:55:19.103Z,92
2023-03-06T23:05:24.472Z,94
2023-03-06T23:15:29.504Z,94
2023-03-06T23:25:36.951Z,92
2023-03-06T23:35:42.317Z,94
2023-03-06T23:45:47.542Z,92
2023-03-06T23:55:52.882Z,94
